Time;durP1;ratioP1;P1;durP2;ratioP2;P2;SDS_P1;SDS_P2;PMS_P1;PMS_P2;Temp;Humidity;BMP_temperature;BMP_pressure;BME280_temperature;BME280_humidity;BME280_pressure;Samples;Min_cycle;Max_cycle;Signal;HPM_P1;HPM_P2
2022/07/29 00:02:09;;;;;;;5.18;2.45;;;;;;;17.57;59.85;101643.59;5009167;28;20080;-88
2022/07/29 00:04:35;;;;;;;3.65;2.42;;;;;;;17.56;59.40;101638.41;5010752;28;20036;-88
2022/07/29 00:07:02;;;;;;;4.95;2.60;;;;;;;17.57;59.22;101640.09;5012558;28;20443;-87
2022/07/29 00:09:27;;;;;;;5.57;2.60;;;;;;;17.50;59.62;101631.63;5011781;28;20029;-88
2022/07/29 00:11:56;;;;;;;4.55;2.15;;;;;;;17.53;59.25;101638.53;5009343;28;20030;-88
2022/07/29 00:14:21;;;;;;;4.03;2.40;;;;;;;17.51;59.49;101638.59;5011741;28;20042;-88
2022/07/29 00:16:47;;;;;;;7.10;2.70;;;;;;;17.53;59.28;101642.00;5011176;28;20087;-87
2022/07/29 00:19:12;;;;;;;4.20;2.55;;;;;;;17.52;58.89;101647.31;5018670;28;20391;-87
2022/07/29 00:21:37;;;;;;;6.10;2.60;;;;;;;17.51;59.06;101646.44;5010642;28;20089;-87
2022/07/29 00:24:03;;;;;;;3.33;2.40;;;;;;;17.50;60.32;101641.25;5008682;28;20022;-88
2022/07/29 00:26:31;;;;;;;6.70;2.80;;;;;;;17.44;60.17;101636.25;5009197;28;20062;-88
2022/07/29 00:28:58;;;;;;;5.50;2.50;;;;;;;17.48;59.89;101633.44;5007727;28;20491;-88
2022/07/29 00:31:23;;;;;;;6.65;2.35;;;;;;;17.48;59.05;101629.97;5008825;28;20496;-87
2022/07/29 00:33:51;;;;;;;4.57;2.65;;;;;;;17.46;59.08;101619.56;5009051;28;20026;-88
2022/07/29 00:36:16;;;;;;;6.22;2.60;;;;;;;17.46;59.24;101626.59;5007406;28;20022;-88
2022/07/29 00:38:45;;;;;;;4.93;2.50;;;;;;;17.43;59.76;101627.56;5023300;28;20114;-88
2022/07/29 00:41:12;;;;;;;5.40;2.50;;;;;;;17.44;59.67;101621.41;5010588;28;20024;-88
2022/07/29 00:43:37;;;;;;;5.85;2.53;;;;;;;17.41;61.56;101618.88;5010892;28;20108;-88
2022/07/29 00:46:06;;;;;;;4.60;2.53;;;;;;;17.42;59.74;101627.59;5001563;28;20048;-88
2022/07/29 00:48:31;;;;;;;5.82;2.40;;;;;;;17.40;60.38;101629.44;5023774;28;20231;-88
2022/07/29 00:50:58;;;;;;;4.80;2.45;;;;;;;17.41;60.66;101633.75;5010738;28;20552;-88
2022/07/29 00:53:27;;;;;;;4.47;2.45;;;;;;;17.41;61.39;101626.75;5010391;28;20502;-88
2022/07/29 00:55:56;;;;;;;5.10;2.40;;;;;;;17.42;61.30;101644.19;5021236;28;20033;-88
2022/07/29 00:58:22;;;;;;;4.45;2.50;;;;;;;17.44;61.06;101644.13;5005565;28;20261;-89
2022/07/29 01:00:47;;;;;;;7.70;2.90;;;;;;;17.43;61.08;101647.66;5016452;28;20029;-90
2022/07/29 01:03:18;;;;;;;5.07;2.75;;;;;;;17.41;60.94;101655.56;5007941;28;20076;-89
2022/07/29 01:05:48;;;;;;;4.60;2.50;;;;;;;17.41;62.29;101673.06;5019659;28;20299;-90
2022/07/29 01:08:16;;;;;;;6.88;2.28;;;;;;;17.38;62.55;101681.94;4993292;28;20015;-90
2022/07/29 01:10:42;;;;;;;4.10;2.25;;;;;;;17.41;62.46;101691.41;4998959;28;20034;-89
2022/07/29 01:13:09;;;;;;;4.68;2.40;;;;;;;17.37;62.48;101701.19;5020792;28;20028;-90
2022/07/29 01:15:51;;;;;;;4.07;2.30;;;;;;;17.37;63.38;101696.78;5012703;28;20029;-89
2022/07/29 01:18:33;;;;;;;4.10;2.50;;;;;;;17.37;63.91;101678.44;5009226;28;20026;-90
2022/07/29 01:21:13;;;;;;;5.40;2.78;;;;;;;17.40;62.69;101680.06;5008663;28;20347;-89
2022/07/29 01:24:09;;;;;;;9.55;2.80;;;;;;;17.37;63.36;101686.31;5003850;28;20030;-90
2022/07/29 01:26:56;;;;;;;4.53;2.78;;;;;;;17.34;62.36;101664.59;5008724;28;20058;-90
2022/07/29 01:29:23;;;;;;;6.78;2.80;;;;;;;17.28;64.50;101655.19;5003401;28;20494;-88
2022/07/29 01:31:58;;;;;;;3.55;2.70;;;;;;;17.26;63.79;101651.78;5008452;28;20038;-88
2022/07/29 01:34:48;;;;;;;7.53;3.15;;;;;;;17.25;63.50;101641.38;5011569;28;20160;-88
2022/07/29 01:37:38;;;;;;;5.97;3.28;;;;;;;17.22;64.51;101634.47;5004210;28;20015;-88
2022/07/29 01:40:07;;;;;;;6.70;3.10;;;;;;;17.18;63.88;101629.44;4997099;28;20030;-88
2022/07/29 01:42:43;;;;;;;7.85;3.05;;;;;;;17.12;63.95;101617.44;5007637;28;20514;-88
2022/07/29 01:45:16;;;;;;;6.38;3.13;;;;;;;17.03;64.76;101609.06;5008076;28;20429;-87
2022/07/29 01:47:46;;;;;;;5.88;3.20;;;;;;;16.89;67.68;101593.84;5007676;28;20022;-88
2022/07/29 01:50:15;;;;;;;8.07;3.70;;;;;;;16.72;69.09;101591.84;5018512;28;20025;-89
2022/07/29 01:52:54;;;;;;;8.82;3.83;;;;;;;16.56;69.99;101578.47;4994036;28;20022;-89
2022/07/29 01:55:24;;;;;;;5.55;4.00;;;;;;;16.40;72.67;101574.69;5001869;28;20431;-89
2022/07/29 01:57:51;;;;;;;7.60;3.90;;;;;;;16.37;74.38;101576.56;5007278;28;20038;-90
2022/07/29 02:00:19;;;;;;;7.88;4.28;;;;;;;16.29;75.66;101571.63;5009547;28;20030;-89
2022/07/29 02:02:47;;;;;;;7.78;4.38;;;;;;;16.18;75.36;101571.97;5011197;28;20029;-89
2022/07/29 02:05:16;;;;;;;6.93;4.43;;;;;;;16.12;76.58;101573.97;5012290;28;20022;-89
2022/07/29 02:07:44;;;;;;;7.03;4.22;;;;;;;16.08;76.87;101581.06;5010492;28;20030;-88
2022/07/29 02:10:12;;;;;;;6.97;4.57;;;;;;;16.05;78.62;101577.69;5012002;28;20031;-88
2022/07/29 02:12:39;;;;;;;10.13;4.32;;;;;;;15.94;76.30;101566.75;5011812;28;20395;-88
2022/07/29 02:15:06;;;;;;;7.70;4.40;;;;;;;15.86;75.69;101555.69;5021126;28;20091;-88
2022/07/29 02:17:50;;;;;;;7.05;4.20;;;;;;;15.83;75.53;101555.81;5009230;28;20034;-88
2022/07/29 02:20:16;;;;;;;7.75;4.57;;;;;;;15.72;77.58;101546.56;5010916;28;20030;-88
2022/07/29 02:22:44;;;;;;;6.28;4.40;;;;;;;15.68;77.98;101544.13;5011533;28;20034;-88
2022/07/29 02:25:10;;;;;;;11.90;4.70;;;;;;;15.66;78.71;101545.91;5011364;28;20018;-88
2022/07/29 02:27:38;;;;;;;6.57;4.40;;;;;;;15.64;79.04;101545.09;5011079;28;20038;-88
2022/07/29 02:30:06;;;;;;;6.97;4.15;;;;;;;15.63;79.93;101551.22;5012946;28;20052;-90
2022/07/29 02:32:34;;;;;;;8.80;4.35;;;;;;;15.59;80.19;101553.09;5012171;28;20040;-90
2022/07/29 02:35:02;;;;;;;9.25;4.82;;;;;;;15.58;78.94;101554.00;4995086;28;20506;-89
2022/07/29 02:37:29;;;;;;;6.70;4.40;;;;;;;15.54;78.92;101546.34;5006785;28;20068;-89
2022/07/29 02:39:56;;;;;;;6.15;4.43;;;;;;;15.52;78.37;101538.50;5022728;28;20021;-89
2022/07/29 02:42:23;;;;;;;6.93;4.47;;;;;;;15.50;78.02;101542.06;5017433;28;20037;-89
2022/07/29 02:44:50;;;;;;;10.88;4.70;;;;;;;15.46;79.65;101536.09;5019383;28;20064;-89
2022/07/29 02:47:34;;;;;;;7.25;4.50;;;;;;;15.46;78.02;101546.53;5012040;28;20026;-88
2022/07/29 02:50:32;;;;;;;7.78;4.60;;;;;;;15.45;79.48;101565.72;5021723;28;20399;-90
2022/07/29 02:53:26;;;;;;;7.32;4.55;;;;;;;15.43;81.01;101562.31;5011333;28;20383;-90
2022/07/29 02:55:57;;;;;;;7.90;5.03;;;;;;;15.45;81.48;101550.06;5009024;28;20046;-89
2022/07/29 02:58:43;;;;;;;8.07;4.90;;;;;;;15.45;78.34;101559.66;5007229;28;20350;-89
2022/07/29 03:01:15;;;;;;;9.73;4.72;;;;;;;15.38;79.10;101538.09;5022741;28;20092;-88
2022/07/29 03:03:44;;;;;;;7.85;4.70;;;;;;;15.35;79.07;101549.50;5019553;28;20676;-89
2022/07/29 03:06:13;;;;;;;8.88;4.55;;;;;;;15.34;79.49;101552.19;5026386;28;20164;-89
2022/07/29 03:08:39;;;;;;;7.45;4.47;;;;;;;15.34;79.65;101552.19;5007682;28;20423;-89
2022/07/29 03:11:07;;;;;;;7.45;4.50;;;;;;;15.30;79.66;101547.94;5010392;28;20033;-89
2022/07/29 03:13:32;;;;;;;10.30;4.68;;;;;;;15.23;80.47;101544.66;5007906;28;20026;-89
2022/07/29 03:15:59;;;;;;;7.43;4.53;;;;;;;15.23;81.85;101547.28;5011386;28;20109;-89
2022/07/29 03:18:25;;;;;;;6.03;4.38;;;;;;;15.24;80.41;101555.97;5011089;28;20424;-89
2022/07/29 03:20:51;;;;;;;8.68;4.25;;;;;;;15.22;80.26;101550.78;5001460;28;20034;-89
2022/07/29 03:23:22;;;;;;;6.80;4.35;;;;;;;15.26;80.40;101555.03;5008939;28;20025;-89
2022/07/29 03:25:49;;;;;;;9.07;4.22;;;;;;;15.24;82.14;101554.22;5011154;28;20042;-89
2022/07/29 03:28:26;;;;;;;7.55;4.65;;;;;;;15.29;82.66;101567.13;5011752;28;20054;-89
2022/07/29 03:30:51;;;;;;;6.22;4.25;;;;;;;15.28;83.29;101555.84;5021408;28;20524;-89
2022/07/29 03:33:17;;;;;;;7.47;4.18;;;;;;;15.30;81.07;101561.00;5001199;28;20026;-89
2022/07/29 03:35:45;;;;;;;8.88;4.38;;;;;;;15.28;82.37;101560.22;5009964;28;20034;-89
2022/07/29 03:38:10;;;;;;;9.27;4.40;;;;;;;15.28;80.52;101557.59;4997556;28;20025;-89
2022/07/29 03:40:46;;;;;;;7.40;4.50;;;;;;;15.25;82.27;101555.94;5010953;28;20438;-89
2022/07/29 03:43:15;;;;;;;9.90;4.55;;;;;;;15.23;82.77;101559.47;5021469;28;20494;-89
2022/07/29 03:45:44;;;;;;;8.48;4.40;;;;;;;15.23;81.69;101570.78;5001648;28;20013;-89
2022/07/29 03:48:15;;;;;;;7.10;4.40;;;;;;;15.19;81.94;101565.72;5012572;28;20407;-89
2022/07/29 03:50:40;;;;;;;7.22;4.40;;;;;;;15.21;82.82;101570.00;5014522;28;20037;-89
2022/07/29 03:53:07;;;;;;;7.15;4.43;;;;;;;15.23;82.51;101578.63;5011699;28;20038;-89
2022/07/29 03:55:40;;;;;;;10.23;5.10;;;;;;;15.17;83.14;101578.81;5010485;28;20041;-89
2022/07/29 03:58:10;;;;;;;9.00;4.30;;;;;;;15.16;82.72;101582.31;5010429;28;20395;-89
2022/07/29 04:00:43;;;;;;;8.40;4.47;;;;;;;15.19;83.45;101589.22;5009285;28;20055;-89
2022/07/29 04:03:10;;;;;;;8.45;4.60;;;;;;;15.17;83.28;101580.56;5008347;28;20487;-89
2022/07/29 04:05:35;;;;;;;7.40;4.50;;;;;;;15.13;83.99;101577.22;5007567;28;20383;-89
2022/07/29 04:08:03;;;;;;;9.27;4.60;;;;;;;15.13;81.60;101579.81;5011602;28;20021;-89
2022/07/29 04:10:28;;;;;;;9.68;5.10;;;;;;;15.15;83.05;101577.16;5011145;28;20044;-89
2022/07/29 04:12:54;;;;;;;8.20;4.70;;;;;;;15.11;83.30;101560.72;5011404;28;20018;-89
2022/07/29 04:15:19;;;;;;;8.02;4.65;;;;;;;15.12;83.11;101557.22;5008382;28;20025;-89
2022/07/29 04:17:45;;;;;;;9.50;4.78;;;;;;;15.13;81.70;101553.72;5008827;28;20038;-88
2022/07/29 04:20:13;;;;;;;8.35;5.00;;;;;;;15.06;81.70;101544.34;5009042;28;20429;-89
2022/07/29 04:22:39;;;;;;;9.63;5.03;;;;;;;15.05;82.87;101541.78;5013358;28;20466;-89
2022/07/29 04:25:04;;;;;;;11.30;5.68;;;;;;;15.11;82.91;101567.69;5016988;28;20018;-89
2022/07/29 04:27:30;;;;;;;10.70;5.60;;;;;;;15.09;82.51;101572.97;5006147;28;20642;-89
2022/07/29 04:29:56;;;;;;;10.73;5.20;;;;;;;15.10;81.71;101569.44;5011214;28;20037;-89
2022/07/29 04:32:21;;;;;;;8.77;5.50;;;;;;;15.06;82.97;101565.25;5006932;28;20397;-89
2022/07/29 04:34:46;;;;;;;8.93;5.20;;;;;;;15.08;82.38;101565.19;5010506;28;20092;-89
2022/07/29 04:37:20;;;;;;;8.40;4.95;;;;;;;15.07;82.96;101561.72;5001879;28;20109;-88
2022/07/29 04:39:45;;;;;;;8.30;5.47;;;;;;;15.03;82.17;101563.56;5009259;28;20030;-88
2022/07/29 04:42:10;;;;;;;7.18;5.15;;;;;;;15.09;83.59;101572.09;5010710;28;20056;-89
2022/07/29 04:44:36;;;;;;;9.77;5.28;;;;;;;15.07;84.00;101580.00;5010433;28;20021;-89
2022/07/29 04:47:01;;;;;;;7.47;5.35;;;;;;;15.09;83.59;101585.16;5015872;28;20033;-89
2022/07/29 04:49:27;;;;;;;7.45;5.35;;;;;;;15.11;84.48;101585.97;5009443;28;20021;-89
2022/07/29 04:51:52;;;;;;;10.18;5.40;;;;;;;15.16;84.17;101600.59;5010960;28;20037;-89
2022/07/29 04:54:18;;;;;;;8.13;5.15;;;;;;;15.19;82.82;101597.91;5010348;28;20026;-88
2022/07/29 04:56:51;;;;;;;11.90;5.60;;;;;;;15.20;84.33;101589.19;5021704;28;20080;-89
2022/07/29 04:59:16;;;;;;;8.23;5.57;;;;;;;15.20;84.42;101598.75;4995596;28;20498;-89
2022/07/29 05:01:47;;;;;;;9.30;5.63;;;;;;;15.17;83.10;101596.22;5009737;28;20029;-88
2022/07/29 05:04:12;;;;;;;12.60;5.57;;;;;;;15.13;82.52;101598.09;5009196;28;20084;-89
2022/07/29 05:06:38;;;;;;;9.82;5.97;;;;;;;15.14;83.54;101593.72;5010479;28;20022;-89
2022/07/29 05:09:03;;;;;;;8.45;5.75;;;;;;;15.10;84.25;101589.50;5010184;28;20080;-89
2022/07/29 05:11:29;;;;;;;8.27;6.30;;;;;;;15.09;83.33;101599.06;5009632;28;20404;-89
2022/07/29 05:13:54;;;;;;;9.25;5.65;;;;;;;15.10;84.01;101602.53;5008936;28;20034;-88
2022/07/29 05:16:21;;;;;;;7.82;5.50;;;;;;;15.03;82.80;101604.50;5007488;28;20030;-88
2022/07/29 05:18:46;;;;;;;9.77;5.78;;;;;;;15.10;84.48;101606.00;5006774;28;20099;-88
2022/07/29 05:21:11;;;;;;;13.80;6.63;;;;;;;15.07;84.33;101592.22;5010002;28;20030;-89
2022/07/29 05:23:37;;;;;;;12.02;6.55;;;;;;;15.07;85.28;101589.59;5008783;28;20495;-89
2022/07/29 05:26:02;;;;;;;10.43;6.03;;;;;;;15.11;85.12;101614.72;5009630;28;20612;-89
2022/07/29 05:28:28;;;;;;;11.38;6.45;;;;;;;15.10;83.81;101613.00;5004564;28;20042;-88
2022/07/29 05:30:53;;;;;;;9.90;6.60;;;;;;;15.11;85.21;101617.31;5008543;28;20026;-88
2022/07/29 05:33:19;;;;;;;11.50;6.40;;;;;;;15.19;84.50;101624.03;5007340;28;20034;-88
2022/07/29 05:35:44;;;;;;;10.50;6.53;;;;;;;15.22;85.43;101628.28;5008490;28;20030;-89
2022/07/29 05:38:09;;;;;;;10.57;6.38;;;;;;;15.22;83.99;101628.28;5010018;28;20347;-88
2022/07/29 05:40:35;;;;;;;9.50;6.23;;;;;;;15.22;85.46;101617.84;5014726;28;20022;-89
2022/07/29 05:43:03;;;;;;;12.15;6.50;;;;;;;15.20;85.13;101619.66;5013544;28;20293;-89
2022/07/29 05:45:28;;;;;;;9.02;6.28;;;;;;;15.20;83.31;101624.88;5002977;28;20025;-89
2022/07/29 05:47:54;;;;;;;9.82;6.45;;;;;;;15.20;84.32;101625.75;4993467;28;20068;-89
2022/07/29 05:50:19;;;;;;;12.35;6.35;;;;;;;15.24;84.80;101613.44;5002044;28;20018;-89
2022/07/29 05:52:45;;;;;;;10.00;6.60;;;;;;;15.30;84.54;101626.28;5003377;28;20590;-88
2022/07/29 05:55:11;;;;;;;12.98;6.70;;;;;;;15.29;84.45;101617.59;5006439;28;20038;-89
2022/07/29 05:57:36;;;;;;;11.90;6.97;;;;;;;15.33;83.69;101619.25;5008063;28;20034;-89
2022/07/29 06:00:02;;;;;;;12.10;6.47;;;;;;;15.34;83.96;101620.09;5005100;28;20049;-89
2022/07/29 06:02:28;;;;;;;8.85;6.70;;;;;;;15.43;84.45;101625.00;5003999;28;20112;-89
2022/07/29 06:04:53;;;;;;;9.77;7.13;;;;;;;15.43;83.46;101625.00;5001996;28;20028;-89
2022/07/29 06:07:19;;;;;;;11.60;6.43;;;;;;;15.43;83.31;101615.41;5007398;28;20029;-89
2022/07/29 06:09:44;;;;;;;10.88;6.50;;;;;;;15.43;81.45;101611.94;5003777;28;20022;-88
2022/07/29 06:12:09;;;;;;;11.82;6.75;;;;;;;15.44;81.64;101624.13;4998889;28;20064;-89
2022/07/29 06:14:35;;;;;;;10.80;6.78;;;;;;;15.49;81.63;101635.28;4994255;28;20790;-88
2022/07/29 06:17:01;;;;;;;12.02;6.95;;;;;;;15.51;81.64;101636.09;4998243;28;20145;-88
2022/07/29 06:19:27;;;;;;;10.32;7.10;;;;;;;15.59;83.06;101621.06;4997295;28;20036;-89
2022/07/29 06:21:52;;;;;;;12.55;7.28;;;;;;;15.63;82.73;101621.81;5008019;28;20075;-88
2022/07/29 06:24:18;;;;;;;13.25;7.38;;;;;;;15.69;81.39;101617.22;5014082;28;20157;-88
2022/07/29 06:26:43;;;;;;;10.75;7.40;;;;;;;15.75;82.86;101617.06;5002946;28;20064;-89
2022/07/29 06:29:10;;;;;;;13.02;7.45;;;;;;;15.77;81.93;101610.00;5002283;28;20018;-89
2022/07/29 06:31:36;;;;;;;11.68;7.20;;;;;;;15.89;81.34;101627.06;5002910;28;20026;-88
2022/07/29 06:34:02;;;;;;;12.27;6.78;;;;;;;15.93;79.14;101628.66;5000159;28;20380;-88
2022/07/29 06:36:30;;;;;;;12.20;6.85;;;;;;;15.91;81.72;101624.38;4999061;28;20407;-88
2022/07/29 06:38:56;;;;;;;11.18;6.72;;;;;;;15.91;80.12;101624.38;5003038;28;20030;-88
2022/07/29 06:41:22;;;;;;;12.68;6.80;;;;;;;15.91;78.95;101629.59;4995899;28;20399;-88
2022/07/29 06:43:47;;;;;;;10.93;6.40;;;;;;;15.93;78.03;101631.28;5003537;28;20492;-88
2022/07/29 06:46:20;;;;;;;9.77;6.45;;;;;;;15.91;78.53;101622.63;5002332;28;20037;-88
2022/07/29 06:48:47;;;;;;;12.77;6.70;;;;;;;15.99;78.33;101633.69;5015111;28;20552;-88
2022/07/29 06:51:16;;;;;;;9.90;6.47;;;;;;;16.08;79.73;101624.69;5007095;28;20069;-88
2022/07/29 06:53:44;;;;;;;12.27;6.68;;;;;;;16.24;79.90;101630.25;5007677;28;20026;-88
2022/07/29 06:56:14;;;;;;;9.77;6.80;;;;;;;16.26;76.72;101618.81;5003663;28;20037;-87
2022/07/29 06:58:40;;;;;;;11.25;6.65;;;;;;;16.33;78.32;101625.53;5014749;28;20092;-88
2022/07/29 07:01:06;;;;;;;9.07;6.38;;;;;;;16.49;76.86;101625.84;5008285;28;20511;-88
2022/07/29 07:03:32;;;;;;;13.05;7.15;;;;;;;16.55;78.73;101616.00;5004205;28;20041;-88
2022/07/29 07:06:00;;;;;;;11.90;6.97;;;;;;;16.63;77.94;101617.53;5003723;28;20060;-88
2022/07/29 07:08:26;;;;;;;11.60;6.75;;;;;;;16.63;78.41;101614.91;5007807;28;20018;-88
2022/07/29 07:10:55;;;;;;;10.10;6.90;;;;;;;16.69;75.56;101625.16;5006564;28;20029;-88
2022/07/29 07:13:20;;;;;;;11.05;7.00;;;;;;;16.67;77.10;101622.59;5008394;28;20029;-89
2022/07/29 07:15:48;;;;;;;13.32;7.30;;;;;;;16.75;75.61;101630.19;5011963;28;20022;-88
2022/07/29 07:18:22;;;;;;;11.77;6.85;;;;;;;16.83;77.15;101636.00;5010671;28;20034;-88
2022/07/29 07:20:47;;;;;;;11.85;6.80;;;;;;;16.83;76.38;101621.13;5009908;28;20037;-88
2022/07/29 07:23:18;;;;;;;12.80;7.32;;;;;;;16.93;76.69;101638.19;5006845;28;20026;-87
2022/07/29 07:25:43;;;;;;;10.43;6.25;;;;;;;16.96;75.65;101618.91;5005835;28;20040;-88
2022/07/29 07:28:09;;;;;;;11.25;6.78;;;;;;;17.00;75.36;101617.88;5011200;28;20033;-89
2022/07/29 07:30:35;;;;;;;11.15;7.13;;;;;;;17.04;76.51;101618.63;5010827;28;20087;-87
2022/07/29 07:33:03;;;;;;;13.52;7.10;;;;;;;17.06;75.52;101625.50;5010388;28;20025;-88
2022/07/29 07:35:29;;;;;;;12.57;7.82;;;;;;;16.99;75.82;101621.38;5012114;28;20029;-88
2022/07/29 07:37:57;;;;;;;13.15;7.57;;;;;;;16.96;75.37;101622.38;5010674;28;20431;-88
2022/07/29 07:40:23;;;;;;;11.50;7.63;;;;;;;16.96;76.39;101629.38;5007355;28;20108;-88
2022/07/29 07:42:48;;;;;;;10.38;7.30;;;;;;;16.91;77.23;101629.56;5010717;28;20117;-88
2022/07/29 07:45:14;;;;;;;12.27;7.65;;;;;;;16.93;77.18;101632.09;5016611;28;20037;-87
2022/07/29 07:47:40;;;;;;;12.15;7.28;;;;;;;16.93;76.60;101634.72;5013638;28;20033;-87
2022/07/29 07:50:07;;;;;;;10.45;7.63;;;;;;;16.97;76.75;101644.19;5006890;28;20053;-86
2022/07/29 07:52:33;;;;;;;12.27;7.35;;;;;;;17.05;77.13;101641.28;5006409;28;20026;-87
2022/07/29 07:54:59;;;;;;;11.50;7.40;;;;;;;17.12;78.78;101637.53;5021807;28;20047;-87
2022/07/29 07:57:24;;;;;;;13.88;7.70;;;;;;;17.20;77.54;101638.91;4991523;28;20451;-87
2022/07/29 07:59:49;;;;;;;11.68;7.57;;;;;;;17.33;75.35;101644.56;5002969;28;20041;-86
2022/07/29 08:02:15;;;;;;;11.45;8.10;;;;;;;17.45;75.77;101645.84;5011518;28;20030;-87
2022/07/29 08:04:40;;;;;;;12.35;8.38;;;;;;;17.66;74.03;101651.13;5009197;28;20116;-87
2022/07/29 08:07:09;;;;;;;13.48;8.02;;;;;;;18.02;73.03;101666.25;5009467;28;20874;-88
2022/07/29 08:09:46;;;;;;;12.90;8.45;;;;;;;18.81;73.26;101657.63;5005791;28;20064;-88
2022/07/29 08:12:11;;;;;;;12.57;7.93;;;;;;;19.84;68.45;101649.28;5002474;28;20537;-88
2022/07/29 08:14:40;;;;;;;15.85;7.47;;;;;;;20.76;64.93;101646.28;5009357;28;20053;-88
2022/07/29 08:17:05;;;;;;;13.60;7.28;;;;;;;21.37;61.57;101657.00;5006937;28;20033;-87
2022/07/29 08:19:33;;;;;;;10.40;7.20;;;;;;;21.77;63.30;101654.78;5001588;28;20032;-88
2022/07/29 08:21:58;;;;;;;11.00;6.95;;;;;;;22.08;60.14;101660.00;4996192;28;20032;-87
2022/07/29 08:27:10;;;;;;;9.88;6.75;;;;;;;22.48;59.29;101653.19;5008006;28;20057;-88
2022/07/29 08:29:47;;;;;;;10.82;6.80;;;;;;;22.69;57.97;101654.53;5006300;28;20030;-88
2022/07/29 08:32:13;;;;;;;10.23;7.40;;;;;;;22.64;56.97;101645.19;5008441;28;20030;-88
2022/07/29 08:34:38;;;;;;;12.10;7.55;;;;;;;22.65;59.43;101660.94;5004368;28;20029;-91
2022/07/29 08:37:04;;;;;;;10.07;7.15;;;;;;;22.70;59.55;101653.56;5003254;28;20099;-92
2022/07/29 08:39:30;;;;;;;11.18;7.30;;;;;;;22.78;57.91;101655.78;5010676;28;20101;-91
2022/07/29 08:41:55;;;;;;;11.52;7.25;;;;;;;22.64;54.89;101659.25;5008761;28;20030;-92
2022/07/29 08:44:25;;;;;;;11.85;6.93;;;;;;;22.60;56.56;101651.56;4997290;28;20036;-92
2022/07/29 08:46:50;;;;;;;10.77;7.07;;;;;;;22.63;58.36;101644.31;5006032;28;20037;-91
2022/07/29 08:49:17;;;;;;;11.35;6.95;;;;;;;22.74;58.95;101633.97;5008663;28;20021;-87
2022/07/29 08:51:43;;;;;;;10.40;7.30;;;;;;;22.85;57.35;101641.25;5010649;28;20037;-88
2022/07/29 08:54:09;;;;;;;10.88;7.07;;;;;;;22.97;53.87;101647.56;5008741;28;20555;-88
2022/07/29 08:56:35;;;;;;;9.98;6.32;;;;;;;23.08;56.75;101647.72;5008918;28;20029;-88
2022/07/29 08:59:04;;;;;;;10.43;6.70;;;;;;;23.15;57.90;101652.53;5006871;28;20140;-88
2022/07/29 09:01:32;;;;;;;15.38;7.60;;;;;;;23.36;57.29;101644.16;5005318;28;20034;-88
2022/07/29 09:04:03;;;;;;;11.75;7.10;;;;;;;23.58;57.05;101647.16;5007536;28;20128;-88
2022/07/29 09:06:33;;;;;;;10.85;6.32;;;;;;;23.65;56.46;101643.16;4997826;28;20026;-88
2022/07/29 09:08:59;;;;;;;9.88;6.15;;;;;;;23.68;52.86;101635.00;5007240;28;20026;-87
2022/07/29 09:11:25;;;;;;;12.90;6.40;;;;;;;23.73;54.61;101637.38;5014956;28;20450;-87
2022/07/29 09:13:50;;;;;;;8.70;6.70;;;;;;;23.69;52.06;101631.41;5007886;28;20518;-88
2022/07/29 09:16:16;;;;;;;10.40;6.70;;;;;;;23.66;53.87;101641.38;5009124;28;20112;-88
2022/07/29 09:18:45;;;;;;;9.60;6.55;;;;;;;23.53;53.57;101636.88;5017986;28;20088;-87
2022/07/29 09:24:09;;;;;;;8.85;6.30;;;;;;;23.81;55.31;101640.34;5005888;28;20048;-88
2022/07/29 09:26:49;;;;;;;11.40;6.78;;;;;;;23.91;53.72;101641.44;4998634;28;20052;-88
2022/07/29 09:29:23;;;;;;;10.07;6.80;;;;;;;24.06;53.74;101644.84;5014313;28;20055;-88
2022/07/29 09:31:50;;;;;;;;;;;;;;;24.31;53.91;101640.47;5016882;28;20117;-88
2022/07/29 09:34:23;;;;;;;11.40;6.45;;;;;;;24.32;52.62;101638.66;5007114;28;19905;-88
2022/07/29 09:36:55;;;;;;;12.23;6.40;;;;;;;24.39;52.47;101639.94;5003901;28;20076;-88
2022/07/29 09:39:34;;;;;;;11.10;6.32;;;;;;;24.50;52.41;101650.63;5008078;28;20048;-87
2022/07/29 09:42:05;;;;;;;15.05;7.43;;;;;;;24.39;50.90;101655.84;5021462;28;20558;-88
2022/07/29 09:44:54;;;;;;;12.13;6.45;;;;;;;24.58;53.51;101656.25;5004997;28;20138;-88
2022/07/29 09:47:26;;;;;;;9.65;6.75;;;;;;;24.46;50.31;101653.63;5008342;28;20017;-88
2022/07/29 09:49:59;;;;;;;14.10;7.18;;;;;;;24.42;51.75;101645.03;5008573;28;20065;-88
2022/07/29 09:52:46;;;;;;;11.27;7.30;;;;;;;24.56;52.53;101655.53;5009664;28;20026;-88
2022/07/29 09:55:11;;;;;;;8.65;5.85;;;;;;;24.44;50.50;101651.06;5015648;28;20113;-87
2022/07/29 09:57:37;;;;;;;10.18;6.00;;;;;;;24.31;50.48;101648.41;5009115;28;20108;-88
2022/07/29 10:00:12;;;;;;;12.75;6.40;;;;;;;24.27;50.80;101657.53;5009597;28;20025;-88
2022/07/29 10:02:39;;;;;;;14.50;8.18;;;;;;;24.22;50.60;101645.56;5006594;28;20383;-88
2022/07/29 10:05:16;;;;;;;12.18;7.95;;;;;;;24.30;49.36;101659.09;5005828;28;20044;-88
2022/07/29 10:07:55;;;;;;;14.80;8.63;;;;;;;24.14;50.71;101659.28;5009846;28;20029;-88
2022/07/29 10:10:29;;;;;;;10.10;7.47;;;;;;;23.93;52.16;101645.69;5010454;28;20462;-88
2022/07/29 10:13:07;;;;;;;9.55;6.75;;;;;;;24.11;51.08;101651.53;5005968;28;20026;-88
2022/07/29 10:15:46;;;;;;;8.55;6.18;;;;;;;24.27;51.36;101646.94;5009412;28;20029;-88
2022/07/29 10:18:13;;;;;;;12.25;6.38;;;;;;;24.48;51.17;101646.41;5002127;28;20099;-88
2022/07/29 10:20:41;;;;;;;12.18;6.72;;;;;;;24.63;49.01;101638.25;5021285;28;20021;-88
2022/07/29 10:23:08;;;;;;;12.27;7.60;;;;;;;24.51;48.22;101643.53;5005452;28;20026;-88
2022/07/29 10:25:36;;;;;;;10.55;7.00;;;;;;;24.53;49.06;101641.63;5009122;28;20057;-87
2022/07/29 10:28:02;;;;;;;11.23;6.53;;;;;;;24.54;50.08;101641.53;5005510;28;20096;-87
2022/07/29 10:30:28;;;;;;;9.38;6.65;;;;;;;24.57;49.49;101635.16;5007851;28;20081;-87
2022/07/29 10:33:31;;;;;;;12.48;7.28;;;;;;;24.72;51.76;101640.25;5012616;28;20033;-87
2022/07/29 10:36:47;;;;;;;12.75;6.80;;;;;;;24.98;50.80;101642.88;5009096;28;20062;-87
2022/07/29 10:39:37;;;;;;;9.15;6.78;;;;;;;25.12;51.14;101634.78;4981145;28;20427;-88
2022/07/29 10:42:21;;;;;;;10.65;7.75;;;;;;;25.11;48.26;101633.09;4973992;28;20408;-88
2022/07/29 10:44:55;;;;;;;12.45;6.95;;;;;;;25.14;50.91;101633.72;5001999;28;20435;-88
2022/07/29 10:47:24;;;;;;;9.50;6.38;;;;;;;25.11;49.56;101631.28;5014509;28;20026;-87
2022/07/29 10:50:13;;;;;;;11.43;7.00;;;;;;;25.00;49.04;101639.16;5014951;28;20065;-88
2022/07/29 10:52:53;;;;;;;11.52;6.65;;;;;;;25.01;49.61;101634.72;5010865;28;20028;-88
2022/07/29 10:55:55;;;;;;;8.77;6.22;;;;;;;25.04;49.98;101629.19;4999717;28;20033;-88
2022/07/29 10:58:24;;;;;;;9.98;5.65;;;;;;;25.01;48.76;101624.94;5011332;28;20033;-88
2022/07/29 11:00:54;;;;;;;13.02;7.15;;;;;;;25.02;47.94;101631.97;5015909;28;20053;-88
2022/07/29 11:04:00;;;;;;;10.20;5.70;;;;;;;25.15;50.12;101634.56;5005142;28;20572;-88
2022/07/29 11:07:06;;;;;;;10.65;5.75;;;;;;;25.25;49.29;101637.41;4973648;28;20538;-88
2022/07/29 11:09:31;;;;;;;11.63;6.00;;;;;;;25.43;47.41;101631.59;4979589;28;20492;-88
2022/07/29 11:11:57;;;;;;;9.95;6.38;;;;;;;25.39;47.18;101621.31;5014633;28;20063;-88
2022/07/29 11:14:58;;;;;;;9.50;5.90;;;;;;;25.44;49.10;101628.00;5002313;28;20026;-88
2022/07/29 11:17:28;;;;;;;11.40;5.47;;;;;;;25.24;47.63;101618.00;5003723;28;20022;-88
2022/07/29 11:20:33;;;;;;;11.93;5.95;;;;;;;25.14;48.44;101616.94;5016490;28;20049;-88
2022/07/29 11:22:59;;;;;;;12.52;5.50;;;;;;;25.03;48.10;101607.13;5013351;28;20395;-87
2022/07/29 11:25:25;;;;;;;7.57;4.70;;;;;;;24.95;46.95;101625.41;5011887;28;20503;-88
2022/07/29 11:27:54;;;;;;;11.38;5.50;;;;;;;24.79;46.32;101624.75;5011214;28;20515;-88
2022/07/29 11:30:19;;;;;;;9.90;4.63;;;;;;;24.82;47.95;101627.19;5000842;28;20022;-91
2022/07/29 11:32:46;;;;;;;10.80;6.20;;;;;;;24.68;45.93;101619.34;5008442;28;20187;-91
2022/07/29 11:35:23;;;;;;;9.95;5.55;;;;;;;24.75;47.31;101617.97;5012558;28;20025;-92
2022/07/29 11:38:35;;;;;;;7.38;4.70;;;;;;;24.87;48.78;101625.06;5014538;28;20028;-92
2022/07/29 11:41:42;;;;;;;8.77;4.47;;;;;;;25.04;47.38;101624.72;5018695;28;20034;-92